Iberia, Ohio
Current Conditions -  °F | °C
As of 8:21 AM on Friday 28 Nov 2014 (Local Time) from KMNN Reporting Station
Haze Haze  
Wind Chill: 14°   Ceiling: 3700
Heat Index: 23°   Visibility: 6mi
Dew Point: 18°   Wind: 8mph
Humidity: 81%   Direction: 270°W
Pressure: 30.36"   Gusts: NA
Location:  40.67°N, 82.84°W
Report Text: KMNN 281321Z AUTO 27007KT 6SM HZ SCT015 OVC037 M05/M08 A3036 RMK AO2 T10501078 TSNO
Loading
Personal Weather Stations






























Interactive Weather Map New forecast layout! Learn more

10-Day Weather Forecast

Advertisements
Track Severe Weather on mobile